Terminal Aerodrome Forecast
Issued by NWS Charleston, WV

Current Version | Previous Version | Graphics & Text | Print | Product List | Glossary On
Versions: 1 2 3 4 5 6 7 8 9 10 11 12 13 14 15 16 17 18 19 20 21 22
000
FTUS41 KRLX 180500
TAFCRW
TAF
KCRW 180525Z 1806/1906 00000KT 5SM BR SCT040
     FM180700 00000KT 1/2SM FG BKN002
     FM181300 00000KT 3/4SM BR BKN001 BKN010
     FM181400 00000KT 5SM BR BKN020
     FM181600 00000KT P6SM BKN040
     FM181700 VRB03KT P6SM SCT040
     FM190100 00000KT P6SM BKN250=

USA.gov is the U.S. government's official web portal to all federal, state and local government web resources and services.